Latest Coastal Weather Observations for Tewantin

IDQ60701

Issued at 10:21 pm EST Friday 12 February 2016 (issued every 10 minutes, with the page automatically refreshed every 10 minutes)

About coastal observations | Map of coastal stations | Coastal observations for QLD | Marine services | Other Formats
Station Details ID: 040908 Name: TEWANTIN RSL PARK Lat: -26.39 Lon: 153.04 Height: 6.4 m
Data from the previous 72 hours. | See also: Recent months at Tewantin
Date/Time
EST
Temp

°C
Wind Pressure Rain
since 9am
mm
Weather Cloud Vis
km
Sea
Height
m
Swell
Dir
 
Speed
knots
Gust
knots
hPa Trend Height
m
Period
s
Dir
12/10:00pm 24.7 SSE 9 16 1011.8 - 0.2 - - - - - - -
12/09:30pm 24.8 SSE 7 13 1012.3 - 0.2 - - - - - - -
12/09:00pm 24.9 SSE 9 15 1012.2 - 0.2 - - - - - - -
12/08:30pm 24.5 SSE 8 15 1012.2 - 0.2 - - - - - - -
12/08:00pm 24.0 SSE 9 14 1012.0 - 0.2 - - - - - - -
12/07:30pm 25.1 SSE 9 16 1012.0 - 0.2 - - - - - - -
12/07:00pm 25.2 SSE 8 15 1011.7 - 0.2 - - - - - - -
12/06:30pm 25.4 SSE 10 18 1011.6 - 0.2 - - - - - - -
12/06:00pm 25.8 SSE 9 16 1011.4 - 0.2 - - - - - - -
12/05:30pm 25.8 SSE 11 19 1011.2 - 0.2 - - - - - - -
12/05:00pm 25.9 SSE 11 19 1011.1 - 0.2 - - - - - - -
12/04:30pm 26.7 SE 10 19 1010.8 - 0.2 - - - - - - -
12/04:00pm 26.9 SE 11 19 1010.9 - 0.2 - - - - - - -
12/03:30pm 27.3 SSE 11 18 1010.9 - 0.2 - - - - - - -
12/03:00pm 27.6 SE 12 24 1011.0 - 0.2 - - - - - - -
12/02:30pm 26.9 SE 12 21 1011.0 - 0.2 - - - - - - -
12/02:00pm 27.4 SE 11 20 1011.1 - 0.2 - - - - - - -
12/01:30pm 27.5 SE 12 21 1011.2 - 0.2 - - - - - - -
12/01:00pm 27.0 ESE 14 21 1011.3 - 0.2 - - - - - - -
12/12:30pm 26.7 ESE 12 20 1011.5 - 0.2 - - - - - - -
12/12:00pm 26.6 ESE 12 23 1011.6 - 0.2 - - - - - - -
12/11:30am 27.1 SE 12 19 1011.8 - 0.2 - - - - - - -
12/11:00am 26.8 SE 12 20 1011.9 - 0.2 - - - - - - -
12/10:30am 26.0 SE 9 17 1012.2 - 0.2 - - - - - - -
12/10:00am 26.5 SE 9 22 1012.3 - 0.2 - - - - - - -
12/09:30am 26.1 SSE 10 15 1012.3 - 0.0 - - - - - - -
12/09:00am 25.8 SSE 8 13 1012.2 - 2.0 - - - - - - -
12/08:30am 25.0 SSE 8 13 1012.3 - 2.0 - - - - - - -
12/08:00am 23.8 SSE 7 12 1012.3 - 2.0 - - - - - - -
12/07:30am 23.9 S 8 11 1012.3 - 2.0 - - - - - - -
12/07:00am 23.2 S 7 11 1012.2 - 2.0 - - - - - - -
12/06:30am 22.1 S 7 10 1012.0 - 2.0 - - - - - - -
12/06:00am 21.9 S 7 10 1011.9 - 2.0 - - - - - - -
12/05:30am 21.7 SSW 5 8 1011.5 - 2.0 - - - - - - -
12/05:00am 21.9 S 7 10 1011.4 - 2.0 - - - - - - -
12/04:30am 21.8 S 6 9 1011.2 - 2.0 - - - - - - -
12/04:00am 21.7 S 6 8 1011.1 - 2.0 - - - - - - -
12/03:30am 21.7 SSW 5 7 1011.1 - 2.0 - - - - - - -
12/03:00am 22.4 SSW 6 8 1011.2 - 0.6 - - - - - - -
12/02:30am 22.4 SSW 5 7 1011.3 - 0.6 - - - - - - -
12/02:00am 22.4 SSW 5 7 1011.5 - 0.6 - - - - - - -
12/01:30am 22.5 SSW 5 7 1011.5 - 0.6 - - - - - - -
12/01:00am 22.5 SSW 4 6 1011.8 - 0.6 - - - - - - -
12/12:30am 22.8 SSW 5 7 1011.9 - 0.6 - - - - - - -
12/12:00am 24.2 SSE 6 11 1011.9 - 0.6 - - - - - - -
 
Date/Time
EST
Temp

°C
Wind Pressure Rain
since 9am
mm
Weather Cloud Vis
km
Sea
Height
m
Swell
Dir
 
Speed
knots
Gust
knots
hPa Trend Height
m
Period
s
Dir
11/11:30pm 24.2 SSE 5 9 1012.2 - 0.6 - - - - - - -
11/11:00pm 24.4 SSE 7 12 1012.4 - 0.6 - - - - - - -
11/10:30pm 24.6 SSE 6 10 1012.5 - 0.6 - - - - - - -
11/10:00pm 24.6 SSE 7 12 1012.7 - 0.6 - - - - - - -
11/09:30pm 24.7 SE 7 13 1012.8 - 0.6 - - - - - - -
11/09:00pm 24.8 SE 7 11 1012.7 - 0.6 - - - - - - -
11/08:30pm 24.7 SE 7 13 1012.8 - 0.6 - - - - - - -
11/08:00pm 25.0 SE 8 15 1012.7 - 0.6 - - - - - - -
11/07:30pm 25.0 SE 8 12 1012.5 - 0.6 - - - - - - -
11/07:00pm 25.0 SE 8 12 1012.2 - 0.6 - - - - - - -
11/06:30pm 24.9 SE 6 10 1011.8 - 0.6 - - - - - - -
11/06:00pm 25.4 SE 8 12 1011.5 - 0.6 - - - - - - -
11/05:30pm 25.5 SE 9 15 1011.4 - 0.6 - - - - - - -
11/05:00pm 23.8 S 6 9 1011.2 - 0.6 - - - - - - -
11/04:30pm 23.5 S 6 9 1010.9 - 0.6 - - - - - - -
11/04:00pm 25.2 SSE 7 13 1010.8 - 0.4 - - - - - - -
11/03:30pm 25.5 SSE 8 13 1010.8 - 0.2 - - - - - - -
11/03:00pm 25.4 SSE 9 16 1010.8 - 0.2 - - - - - - -
11/02:30pm 25.3 SSE 9 16 1011.1 - 0.2 - - - - - - -
11/02:00pm 23.9 ESE 12 21 1011.4 - 0.2 - - - - - - -
11/01:30pm 24.5 ESE 8 12 1011.3 - 0.2 - - - - - - -
11/01:00pm 23.8 ESE 11 18 1011.8 - 0.2 - - - - - - -
11/12:30pm 25.8 ESE 13 23 1011.8 - 0.0 - - - - - - -
11/12:00pm 26.9 SE 11 20 1011.7 - 0.0 - - - - - - -
11/11:30am 26.5 SE 12 18 1012.0 - 0.0 - - - - - - -
11/11:00am 26.8 SSE 10 16 1012.1 - 0.0 - - - - - - -
11/10:30am 27.0 SE 10 17 1012.3 - 0.0 - - - - - - -
11/10:00am 25.7 SSE 8 14 1012.4 - 0.0 - - - - - - -
11/09:30am 25.6 SSE 9 16 1012.3 - 0.0 - - - - - - -
11/09:00am 25.2 S 8 11 1012.2 - 1.8 - - - - - - -
11/08:30am 24.4 S 9 15 1012.2 - 1.8 - - - - - - -
11/08:00am 23.7 S 8 11 1012.1 - 1.8 - - - - - - -
11/07:30am 23.6 S 7 11 1012.0 - 1.8 - - - - - - -
11/07:00am 22.3 S 7 11 1011.8 - 1.8 - - - - - - -
11/06:30am 21.6 SSW 7 10 1011.7 - 1.8 - - - - - - -
11/06:00am 21.5 S 6 10 1011.4 - 1.8 - - - - - - -
11/05:30am 21.5 SSW 7 10 1011.1 - 1.8 - - - - - - -
11/05:00am 21.6 SSW 6 10 1011.1 - 1.8 - - - - - - -
11/04:30am 21.7 SSW 6 9 1011.1 - 1.8 - - - - - - -
11/04:00am 22.1 S 5 8 1010.9 - 1.8 - - - - - - -
11/03:30am 22.2 SSW 5 9 1010.7 - 1.8 - - - - - - -
11/03:00am 22.3 SSW 5 7 1010.6 - 1.8 - - - - - - -
11/02:30am 22.3 SSW 5 7 1010.7 - 1.8 - - - - - - -
11/02:00am 22.2 SSW 5 7 1011.0 - 1.8 - - - - - - -
11/01:30am 22.4 SSW 5 7 1011.2 - 1.8 - - - - - - -
11/01:00am 22.8 SSW 6 8 1011.5 - 1.8 - - - - - - -
11/12:30am 23.0 SSW 5 7 1011.8 - 1.8 - - - - - - -
11/12:00am 24.2 SSE 7 11 1012.1 - 1.8 - - - - - - -
 
Date/Time
EST
Temp

°C
Wind Pressure Rain
since 9am
mm
Weather Cloud Vis
km
Sea
Height
m
Swell
Dir
 
Speed
knots
Gust
knots
hPa Trend Height
m
Period
s
Dir
10/11:30pm 24.3 SSE 6 12 1012.4 - 1.8 - - - - - - -
10/11:00pm 24.6 SE 8 12 1012.8 - 1.8 - - - - - - -
10/10:30pm 24.7 SE 7 13 1013.0 - 1.8 - - - - - - -
10/10:00pm 24.8 SE 8 15 1013.1 - 1.8 - - - - - - -
10/09:30pm 24.8 SE 7 13 1013.0 - 1.8 - - - - - - -
10/09:00pm 24.7 SE 7 11 1012.9 - 1.8 - - - - - - -
10/08:30pm 24.8 SE 7 14 1012.8 - 1.8 - - - - - - -
10/08:00pm 24.8 SE 7 11 1012.8 - 1.8 - - - - - - -
10/07:30pm 24.6 SSE 7 12 1012.6 - 1.8 - - - - - - -
10/07:00pm 24.6 SSE 6 11 1012.2 - 1.8 - - - - - - -
10/06:30pm 24.7 SSE 7 12 1011.9 - 1.8 - - - - - - -
10/06:00pm 24.9 SSE 6 10 1011.8 - 1.8 - - - - - - -
10/05:30pm 24.6 SSE 6 9 1011.7 - 1.8 - - - - - - -
10/05:00pm 24.0 S 4 7 1011.5 - 1.8 - - - - - - -
10/04:30pm 23.7 S 6 9 1011.4 - 1.8 - - - - - - -
10/04:00pm 22.6 SSE 10 18 1011.3 - 1.4 - - - - - - -
10/03:30pm 24.2 SE 9 18 1011.1 - 0.2 - - - - - - -
10/03:00pm 25.8 SE 12 21 1010.9 - 0.2 - - - - - - -
10/02:30pm 26.5 SE 10 18 1011.1 - 0.2 - - - - - - -
10/02:00pm 26.4 ESE 13 19 1011.6 - 0.2 - - - - - - -
10/01:30pm 26.7 SE 12 19 1011.8 - 0.2 - - - - - - -
10/01:00pm 25.7 - 3 26 1012.0 - 0.2 - - - - - - -
10/12:30pm 26.5 SE 9 15 1012.0 - 0.2 - - - - - - -
10/12:00pm - SSE 7 11 1012.4 - 0.0 - - - - - - -
10/11:30am - SSE 11 19 1012.5 - 0.0 - - - - - - -
10/11:00am 25.8 SE 9 15 1012.7 - 0.0 - - - - - - -
10/10:30am 26.5 S 9 16 1012.7 - 0.0 - - - - - - -
10/10:00am 25.7 S 10 19 1012.9 - 0.0 - - - - - - -
10/09:30am 24.8 S 9 13 1013.2 - 0.0 - - - - - - -
10/09:00am 23.8 S 9 13 1013.0 - 2.8 - - - - - - -
10/08:30am 22.3 SSW 6 8 1013.1 - 2.8 - - - - - - -
10/08:00am 22.0 S 9 15 1012.9 - 2.8 - - - - - - -
10/07:30am 21.2 S 8 12 1012.8 - 2.8 - - - - - - -
10/07:00am 20.7 SSE 7 11 1012.8 - 2.4 - - - - - - -
10/06:30am 21.4 SE 7 11 1012.4 - 0.6 - - - - - - -
10/06:00am 22.4 S 7 12 1011.8 - 0.0 - - - - - - -
10/05:30am 22.2 S 7 11 1011.6 - 0.0 - - - - - - -
10/05:00am 22.0 S 8 12 1011.4 - 0.0 - - - - - - -
10/04:30am 22.1 S 6 9 1011.3 - 0.0 - - - - - - -
10/04:00am 21.9 S 6 9 1011.2 - 0.0 - - - - - - -
10/03:30am 21.8 S 6 9 1011.2 - 0.0 - - - - - - -
10/03:00am 21.7 S 6 9 1011.3 - 0.0 - - - - - - -
10/02:30am 21.5 S 7 12 1011.2 - 0.0 - - - - - - -
10/02:00am 21.4 S 7 11 1011.6 - 0.0 - - - - - - -
10/01:30am 21.4 S 8 13 1012.1 - 0.0 - - - - - - -
10/01:00am 21.9 S 6 13 1012.5 - 0.0 - - - - - - -
10/12:30am 22.3 S 8 13 1012.7 - 0.0 - - - - - - -
10/12:00am 22.3 S 7 11 1013.3 - 0.0 - - - - - - -
 
Date/Time
EST
Temp

°C
Wind Pressure Rain
since 9am
mm
Weather Cloud Vis
km
Sea
Height
m
Swell
Dir
 
Speed
knots
Gust
knots
hPa Trend Height
m
Period
s
Dir
09/11:30pm 22.4 S 6 9 1013.6 - 0.0 - - - - - - -
09/11:00pm 22.2 S 9 13 1013.8 - 0.0 - - - - - - -
09/10:30pm 22.3 S 9 13 1014.3 - 0.0 - - - - - - -

Other Formats:

Comma delimited format used in spreadsheet applications
http://www.bom.gov.au/fwo/IDQ60701/IDQ60701.94570.axf

JavaScript Object Notation format (JSON) in row-major order
http://www.bom.gov.au/fwo/IDQ60701/IDQ60701.94570.json